Aviation Digital Data Service (ADDS)

Output produced by METARs form (0147 UTC 18 October 2017)
found at http://www.aviationweather.gov/adds/metars/
 
KILE 180056Z AUTO 14004KT 10SM CLR 17/07 A3016 RMK AO2 SLP234 T01670072
KILE 172356Z AUTO 12004KT 10SM CLR 21/07 A3015 RMK AO2 SLP229 T02110067 10256 20211 56009
KILE 172256Z AUTO 11004KT 10SM CLR 24/06 A3016 RMK AO2 SLP228 T02390056
KILE 172156Z AUTO VRB03KT 10SM CLR 24/06 A3017 RMK AO2 SLP231 T02440061
KILE 172056Z AUTO VRB03KT 10SM CLR 24/06 A3018 RMK AO2 SLP235 T02390061 56031
KILE 171956Z AUTO VRB04KT 10SM CLR 23/07 A3020 RMK AO2 SLP243 T02330067
KILE 171856Z AUTO 10004KT 10SM CLR 22/07 A3024 RMK AO2 SLP255 T02220072
KILE 171756Z AUTO VRB03KT 10SM CLR 21/07 A3028 RMK AO2 SLP269 T02060067 10211 20061 58016
KILE 171656Z AUTO VRB05KT 10SM CLR 19/06 A3031 RMK AO2 SLP281 T01940061
KILE 171556Z AUTO 13008KT 10SM CLR 18/07 A3033 RMK AO2 SLP286 T01830072
KILE 171456Z AUTO 13006KT 10SM CLR 16/08 A3033 RMK AO2 SLP287 T01610083 51014
KILE 171356Z AUTO 00000KT 10SM CLR 12/07 A3031 RMK AO2 SLP284 T01170067
KILE 171256Z AUTO 32004KT 10SM CLR 07/05 A3030 RMK AO2 SLP281 T00720050
KILE 171156Z AUTO 00000KT 10SM CLR 07/04 A3028 RMK AO2 SLP275 T00720044 10122 20072 53001 TSNO
KILE 171056Z AUTO 00000KT 10SM CLR 08/04 A3028 RMK AO2 SLP273 T00780044
KILE 170956Z AUTO 00000KT 10SM CLR 08/04 A3027 RMK AO2 SLP268 T00830044
KILE 170856Z AUTO 29005KT 10SM CLR 10/05 A3028 RMK AO2 SLP269 T01000050 56002
KILE 170756Z AUTO 34004KT 10SM CLR 09/04 A3028 RMK AO2 SLP270 T00940044
KILE 170656Z AUTO 33005KT 10SM CLR 12/04 A3028 RMK AO2 SLP269 T01220044
KILE 170556Z AUTO 34003KT 10SM CLR 12/04 A3029 RMK AO2 SLP272 T01170044 10183 20117 402330094 58002
KILE 170456Z AUTO 01004KT 10SM CLR 13/04 A3030 RMK AO2 SLP276 T01330044
KILE 170356Z AUTO 36003KT 10SM CLR 14/04 A3031 RMK AO2 SLP279 T01390044
KILE 170256Z AUTO 00000KT 10SM CLR 14/05 A3030 RMK AO2 SLP277 T01390050 51013
KILE 170156Z AUTO 36006KT 10SM CLR 16/05 A3029 RMK AO2 SLP275 T01560050